Time;durP1;ratioP1;P1;durP2;ratioP2;P2;SDS_P1;SDS_P2;PMS_P1;PMS_P2;Temp;Humidity;BMP_temperature;BMP_pressure;BME280_temperature;BME280_humidity;BME280_pressure;Samples;Min_cycle;Max_cycle;Signal;HPM_P1;HPM_P2
2022/08/22 00:01:09;;;;;;;1.15;0.80;;;19.10;99.90;;;;;;5017294;28;20168;-58
2022/08/22 00:03:50;;;;;;;1.73;0.85;;;19.10;99.90;;;;;;5017425;28;20210;-59
2022/08/22 00:06:24;;;;;;;1.58;0.57;;;19.20;99.90;;;;;;5017120;28;20203;-58
2022/08/22 00:09:28;;;;;;;1.35;0.82;;;19.20;99.90;;;;;;5017125;28;20175;-58
2022/08/22 00:12:12;;;;;;;1.25;0.63;;;19.30;99.90;;;;;;5017200;28;20169;-58
2022/08/22 00:15:01;;;;;;;0.77;0.77;;;19.20;99.90;;;;;;5017019;28;20176;-59
2022/08/22 00:17:42;;;;;;;0.47;0.47;;;19.20;99.90;;;;;;5011545;28;20196;-58
2022/08/22 00:20:15;;;;;;;1.00;0.82;;;19.30;99.90;;;;;;5016913;28;20252;-58
2022/08/22 00:22:54;;;;;;;1.27;0.95;;;19.20;99.90;;;;;;5015804;28;20213;-58
2022/08/22 00:25:47;;;;;;;0.85;0.70;;;19.20;99.90;;;;;;5016665;28;20196;-58
2022/08/22 00:28:20;;;;;;;1.40;0.63;;;19.20;99.90;;;;;;5016444;28;20705;-58
2022/08/22 00:31:21;;;;;;;1.20;0.80;;;19.30;99.90;;;;;;5016934;28;20168;-58
2022/08/22 00:33:59;;;;;;;1.88;0.82;;;19.30;99.90;;;;;;5016833;28;20561;-58
2022/08/22 00:36:29;;;;;;;0.80;0.80;;;19.30;99.90;;;;;;5016719;28;20190;-57
2022/08/22 00:39:18;;;;;;;0.75;0.60;;;19.20;99.90;;;;;;5016707;28;20176;-58
2022/08/22 00:42:00;;;;;;;1.08;0.68;;;19.10;99.90;;;;;;5016663;28;20173;-58
2022/08/22 00:44:35;;;;;;;0.68;0.55;;;19.10;99.90;;;;;;5015298;28;20173;-58
2022/08/22 00:47:22;;;;;;;0.60;0.60;;;19.10;99.90;;;;;;5016586;28;20219;-59
2022/08/22 00:50:03;;;;;;;0.80;0.70;;;19.10;99.90;;;;;;5016475;28;20669;-58
2022/08/22 00:52:57;;;;;;;1.48;0.70;;;19.00;99.90;;;;;;5016333;28;20640;-58
2022/08/22 00:55:40;;;;;;;1.17;0.52;;;19.00;99.90;;;;;;5016842;28;20177;-58
2022/08/22 00:58:34;;;;;;;0.90;0.90;;;19.00;99.90;;;;;;5015191;28;20264;-58
2022/08/22 01:01:05;;;;;;;1.10;0.90;;;19.10;99.90;;;;;;5015961;28;20177;-58
2022/08/22 01:03:54;;;;;;;1.10;0.73;;;19.20;99.90;;;;;;5015116;28;20176;-58
2022/08/22 01:06:38;;;;;;;1.45;0.60;;;19.10;99.90;;;;;;5016187;28;20220;-57
2022/08/22 01:09:31;;;;;;;1.02;0.63;;;19.10;99.90;;;;;;5016240;28;20173;-58
2022/08/22 01:12:18;;;;;;;1.45;0.80;;;19.00;99.90;;;;;;5016182;28;20175;-58
2022/08/22 01:14:57;;;;;;;0.60;0.60;;;19.10;99.90;;;;;;5015991;28;20739;-58
2022/08/22 01:17:54;;;;;;;1.15;0.77;;;18.90;99.90;;;;;;5016058;28;20626;-58
2022/08/22 01:20:35;;;;;;;0.88;0.73;;;18.90;99.90;;;;;;5015981;28;20164;-58
2022/08/22 01:23:37;;;;;;;0.75;0.75;;;18.90;99.90;;;;;;5015881;28;20172;-58
2022/08/22 01:26:25;;;;;;;0.80;0.80;;;18.90;99.90;;;;;;5015525;28;20283;-58
2022/08/22 01:29:05;;;;;;;1.20;1.10;;;19.00;99.90;;;;;;5015424;28;20196;-58
2022/08/22 01:31:43;;;;;;;0.65;0.65;;;19.00;99.90;;;;;;5015979;28;20172;-57
2022/08/22 01:34:21;;;;;;;1.20;0.70;;;19.00;99.90;;;;;;5015552;28;20168;-58
2022/08/22 01:36:58;;;;;;;0.88;0.70;;;19.00;99.90;;;;;;5015674;28;20297;-58
2022/08/22 01:39:48;;;;;;;1.00;0.73;;;19.00;99.90;;;;;;5015514;28;20161;-58
2022/08/22 01:42:33;;;;;;;1.27;0.80;;;19.00;99.90;;;;;;5015456;28;20211;-58
2022/08/22 01:45:23;;;;;;;1.45;0.90;;;19.10;99.90;;;;;;5013929;28;20177;-58
2022/08/22 01:48:17;;;;;;;0.73;0.55;;;19.10;99.90;;;;;;5015363;28;20230;-58
2022/08/22 01:50:46;;;;;;;0.60;0.55;;;19.00;99.90;;;;;;5015299;28;20188;-58
2022/08/22 01:53:23;;;;;;;0.85;0.70;;;19.10;99.90;;;;;;5015343;28;20581;-58
2022/08/22 01:55:57;;;;;;;0.80;0.80;;;19.00;99.90;;;;;;5015295;28;20581;-59
2022/08/22 01:58:30;;;;;;;0.80;0.60;;;19.00;99.90;;;;;;5015049;28;20237;-58
2022/08/22 02:01:11;;;;;;;0.68;0.68;;;19.00;99.90;;;;;;5015098;28;20176;-58
2022/08/22 02:04:08;;;;;;;0.80;0.70;;;19.00;99.90;;;;;;5014996;28;20165;-59
2022/08/22 02:06:58;;;;;;;1.90;1.02;;;19.00;99.90;;;;;;5015007;28;20693;-58
2022/08/22 02:09:51;;;;;;;0.57;0.47;;;18.90;99.90;;;;;;5014673;28;20172;-58
2022/08/22 02:12:44;;;;;;;0.70;0.70;;;18.90;99.90;;;;;;5015089;28;20177;-57
2022/08/22 02:15:37;;;;;;;1.58;0.68;;;18.90;99.90;;;;;;5014717;28;20173;-58
2022/08/22 02:18:07;;;;;;;0.95;0.63;;;18.80;99.90;;;;;;5014572;28;20183;-58
2022/08/22 02:20:58;;;;;;;0.75;0.75;;;18.80;99.90;;;;;;5014788;28;20169;-58
2022/08/22 02:23:54;;;;;;;0.50;0.50;;;18.80;99.90;;;;;;5014796;28;20629;-58
2022/08/22 02:26:24;;;;;;;0.60;0.60;;;18.70;99.90;;;;;;5014529;28;20196;-58
2022/08/22 02:28:56;;;;;;;0.68;0.60;;;18.70;99.90;;;;;;5014532;28;20195;-58
2022/08/22 02:31:35;;;;;;;1.17;0.70;;;18.60;99.90;;;;;;5014602;28;20256;-59
2022/08/22 02:34:27;;;;;;;0.70;0.70;;;18.60;99.90;;;;;;5014637;28;20531;-58
2022/08/22 02:37:28;;;;;;;1.30;1.00;;;18.60;99.90;;;;;;5014280;28;20212;-58
2022/08/22 02:40:16;;;;;;;0.55;0.55;;;18.40;99.90;;;;;;4990512;28;20246;-58
2022/08/22 02:42:51;;;;;;;1.00;0.82;;;18.40;99.90;;;;;;5014192;28;20255;-58
2022/08/22 02:45:43;;;;;;;0.82;0.55;;;18.40;99.90;;;;;;5014047;28;20211;-58
2022/08/22 02:48:33;;;;;;;1.40;0.70;;;18.40;99.90;;;;;;5014583;28;20194;-58
2022/08/22 02:51:04;;;;;;;0.98;0.90;;;18.50;99.90;;;;;;5014232;28;20166;-58
2022/08/22 02:54:00;;;;;;;0.80;0.73;;;18.60;99.90;;;;;;5014010;28;20173;-58
2022/08/22 02:56:52;;;;;;;1.73;0.98;;;18.60;99.90;;;;;;5014192;28;20173;-59
2022/08/22 02:59:33;;;;;;;0.63;0.60;;;18.60;99.90;;;;;;5005795;28;20254;-58
2022/08/22 03:02:26;;;;;;;0.70;0.70;;;18.60;99.90;;;;;;5013837;28;20211;-58
2022/08/22 03:04:58;;;;;;;0.80;0.80;;;18.50;99.90;;;;;;5012731;28;20264;-58
2022/08/22 03:07:42;;;;;;;1.10;0.80;;;18.50;99.90;;;;;;5013857;28;20236;-58
2022/08/22 03:10:29;;;;;;;0.70;0.70;;;18.60;99.90;;;;;;5013905;28;20183;-58
2022/08/22 03:13:06;;;;;;;1.75;0.73;;;18.50;99.90;;;;;;5013814;28;20239;-58
2022/08/22 03:15:51;;;;;;;1.42;0.77;;;18.50;99.90;;;;;;5014354;28;20590;-58
2022/08/22 03:18:42;;;;;;;0.77;0.55;;;18.60;99.90;;;;;;4996445;28;20176;-58
2022/08/22 03:21:26;;;;;;;0.70;0.70;;;18.50;99.90;;;;;;5013074;28;20528;-58
2022/08/22 03:24:04;;;;;;;1.27;1.17;;;18.60;99.90;;;;;;5013669;28;20499;-58
2022/08/22 03:26:39;;;;;;;3.05;1.10;;;18.60;99.90;;;;;;5013740;28;20188;-58
2022/08/22 03:29:36;;;;;;;1.75;1.00;;;18.60;99.90;;;;;;5013195;28;20210;-57
2022/08/22 03:32:14;;;;;;;1.48;1.10;;;18.70;99.90;;;;;;5010592;28;20185;-59
2022/08/22 03:34:59;;;;;;;1.60;1.10;;;18.60;99.90;;;;;;5013513;28;20173;-57
2022/08/22 03:37:41;;;;;;;1.15;0.90;;;18.50;99.90;;;;;;5013344;28;20176;-59
2022/08/22 03:40:26;;;;;;;1.35;0.85;;;18.40;99.90;;;;;;5013599;28;20173;-58
2022/08/22 03:43:29;;;;;;;2.15;0.80;;;18.50;99.90;;;;;;5012460;28;20191;-58
2022/08/22 03:46:13;;;;;;;1.95;0.90;;;18.50;99.90;;;;;;5013586;28;20200;-58
2022/08/22 03:49:20;;;;;;;0.85;0.85;;;18.40;99.90;;;;;;5013471;28;20187;-58
2022/08/22 03:52:09;;;;;;;1.90;1.05;;;18.50;99.90;;;;;;5013360;28;20191;-58
2022/08/22 03:54:47;;;;;;;0.95;0.90;;;18.40;99.90;;;;;;5013617;28;20168;-58
2022/08/22 03:57:47;;;;;;;1.13;1.02;;;18.50;99.90;;;;;;5013472;28;20181;-59
2022/08/22 04:00:19;;;;;;;2.28;1.17;;;18.40;99.90;;;;;;5013171;28;20215;-58
2022/08/22 04:03:03;;;;;;;2.40;1.23;;;18.40;99.90;;;;;;5013499;28;20212;-58
2022/08/22 04:05:47;;;;;;;1.67;0.93;;;18.40;99.90;;;;;;5013183;28;20554;-57
2022/08/22 04:09:08;;;;;;;1.52;1.20;;;18.50;99.90;;;;;;5013222;28;20683;-58
2022/08/22 04:11:59;;;;;;;0.88;0.82;;;18.50;99.90;;;;;;4996069;28;20196;-58
2022/08/22 04:14:39;;;;;;;1.45;1.00;;;18.50;99.90;;;;;;5013175;28;20177;-58
2022/08/22 04:17:24;;;;;;;1.23;1.13;;;18.50;99.90;;;;;;5013000;28;20204;-58
2022/08/22 04:20:05;;;;;;;1.50;0.98;;;18.50;99.90;;;;;;5013175;28;20172;-59
2022/08/22 04:22:50;;;;;;;2.10;1.00;;;18.50;99.90;;;;;;5013088;28;20208;-59
2022/08/22 04:25:24;;;;;;;1.20;1.00;;;18.40;99.90;;;;;;5013201;28;20169;-58
2022/08/22 04:28:07;;;;;;;1.10;0.82;;;18.40;99.90;;;;;;5013040;28;20211;-59
2022/08/22 04:30:51;;;;;;;1.10;1.00;;;18.40;99.90;;;;;;5013099;28;20239;-59
2022/08/22 04:33:27;;;;;;;0.90;0.88;;;18.40;99.90;;;;;;5015918;28;20622;-58
2022/08/22 04:36:18;;;;;;;1.20;0.98;;;18.30;99.90;;;;;;5017101;28;20203;-58
2022/08/22 04:39:03;;;;;;;2.30;1.30;;;18.30;99.90;;;;;;5016541;28;20172;-58
2022/08/22 04:41:35;;;;;;;1.33;0.98;;;18.30;99.90;;;;;;5016591;28;20169;-59
2022/08/22 04:44:24;;;;;;;1.35;0.90;;;18.30;99.90;;;;;;5016338;28;20176;-59
2022/08/22 04:47:07;;;;;;;1.27;0.95;;;18.40;99.90;;;;;;5016365;28;20673;-59
2022/08/22 04:49:42;;;;;;;1.23;1.10;;;18.40;99.90;;;;;;5015717;28;20176;-59
2022/08/22 04:52:52;;;;;;;1.27;1.10;;;18.40;99.90;;;;;;5016305;28;20176;-59
2022/08/22 04:55:28;;;;;;;1.50;1.10;;;18.50;99.90;;;;;;5016488;28;20180;-58
2022/08/22 04:58:23;;;;;;;1.50;1.38;;;18.50;99.90;;;;;;5015682;28;20228;-58
2022/08/22 05:01:22;;;;;;;1.30;1.20;;;18.40;99.90;;;;;;5015698;28;20214;-57
2022/08/22 05:04:10;;;;;;;1.25;0.80;;;18.50;99.90;;;;;;5016571;28;20230;-57
2022/08/22 05:06:40;;;;;;;2.22;1.00;;;18.40;99.90;;;;;;5014923;28;20291;-57
2022/08/22 05:09:12;;;;;;;1.17;1.08;;;18.50;99.90;;;;;;5014698;28;20192;-58
2022/08/22 05:11:41;;;;;;;1.50;1.20;;;18.50;99.90;;;;;;5016237;28;20169;-57
2022/08/22 05:14:22;;;;;;;1.83;1.00;;;18.50;99.90;;;;;;5015701;28;20200;-56
2022/08/22 05:16:51;;;;;;;1.17;0.98;;;18.50;99.90;;;;;;5015988;28;20173;-58
2022/08/22 05:19:23;;;;;;;2.35;1.17;;;18.40;99.90;;;;;;5015710;28;20616;-57
2022/08/22 05:21:50;;;;;;;1.52;1.10;;;18.30;99.90;;;;;;5016042;28;20231;-57
2022/08/22 05:24:31;;;;;;;0.80;0.80;;;18.40;99.90;;;;;;5014811;28;20546;-58
2022/08/22 05:27:07;;;;;;;1.20;1.00;;;18.40;99.90;;;;;;5014504;28;20204;-57
2022/08/22 05:29:32;;;;;;;1.23;1.13;;;18.40;99.90;;;;;;5015482;28;20200;-57
2022/08/22 05:32:06;;;;;;;1.08;0.98;;;18.40;99.90;;;;;;4998236;28;20180;-57
2022/08/22 05:34:41;;;;;;;1.08;0.90;;;18.40;99.90;;;;;;5015864;28;20176;-57
2022/08/22 05:37:16;;;;;;;1.70;1.05;;;18.40;99.90;;;;;;5015598;28;20172;-57
2022/08/22 05:39:47;;;;;;;1.27;1.00;;;18.40;99.90;;;;;;5015576;28;20180;-57
2022/08/22 05:42:30;;;;;;;2.58;0.90;;;18.40;99.90;;;;;;5015467;28;20205;-57
2022/08/22 05:44:56;;;;;;;1.30;1.20;;;18.40;99.90;;;;;;5014907;28;20223;-57
2022/08/22 05:47:27;;;;;;;1.25;1.00;;;18.40;99.90;;;;;;5014053;28;20216;-57
2022/08/22 05:50:04;;;;;;;2.03;1.10;;;18.40;99.90;;;;;;5015313;28;20260;-56
2022/08/22 05:52:51;;;;;;;1.50;1.10;;;18.40;99.90;;;;;;5015149;28;20247;-57
2022/08/22 05:55:22;;;;;;;1.55;1.20;;;18.50;99.90;;;;;;5015039;28;20538;-56
2022/08/22 05:58:12;;;;;;;2.25;1.30;;;18.50;99.90;;;;;;5013986;28;20553;-57
2022/08/22 06:00:42;;;;;;;1.33;1.23;;;18.50;99.90;;;;;;5015121;28;20512;-57
2022/08/22 06:03:25;;;;;;;1.20;1.10;;;18.60;99.90;;;;;;5014856;28;20169;-57
2022/08/22 06:05:54;;;;;;;1.10;1.00;;;18.60;99.90;;;;;;5015213;28;20615;-57
2022/08/22 06:08:34;;;;;;;1.30;1.08;;;18.60;99.90;;;;;;5014988;28;20599;-58
2022/08/22 06:11:27;;;;;;;1.33;1.10;;;18.60;99.90;;;;;;5014843;28;20169;-57
2022/08/22 06:14:00;;;;;;;2.60;1.30;;;18.60;99.90;;;;;;5014581;28;20533;-57
2022/08/22 06:16:45;;;;;;;1.25;1.00;;;18.70;99.90;;;;;;5014898;28;20626;-57
2022/08/22 06:19:14;;;;;;;1.40;1.30;;;18.80;99.90;;;;;;5014982;28;20207;-57
2022/08/22 06:21:41;;;;;;;1.33;1.05;;;18.90;99.90;;;;;;5013381;28;20176;-58
2022/08/22 06:24:15;;;;;;;1.30;1.20;;;18.90;99.90;;;;;;5013343;28;20635;-57
2022/08/22 06:26:45;;;;;;;1.52;1.10;;;19.00;99.90;;;;;;5014493;28;20251;-57
2022/08/22 06:29:26;;;;;;;1.80;1.25;;;19.10;99.90;;;;;;5014233;28;20287;-57
2022/08/22 06:31:51;;;;;;;1.00;0.90;;;19.10;99.90;;;;;;5014799;28;20180;-57
2022/08/22 06:34:23;;;;;;;2.08;1.20;;;19.10;99.90;;;;;;5014460;28;20534;-57
2022/08/22 06:36:51;;;;;;;1.10;1.00;;;19.20;99.90;;;;;;5014357;28;20217;-57
2022/08/22 06:39:31;;;;;;;1.20;1.10;;;19.20;99.90;;;;;;5014411;28;20511;-57
2022/08/22 06:42:01;;;;;;;1.20;1.10;;;19.30;99.90;;;;;;5014379;28;20172;-56
2022/08/22 06:44:36;;;;;;;1.77;1.23;;;19.40;99.90;;;;;;5014288;28;20180;-57
2022/08/22 06:47:08;;;;;;;1.25;1.15;;;19.50;99.90;;;;;;5014020;28;20286;-57
2022/08/22 06:49:36;;;;;;;1.25;1.15;;;19.50;99.90;;;;;;5013115;28;20173;-56
2022/08/22 06:52:10;;;;;;;1.50;1.40;;;19.60;99.90;;;;;;5014290;28;20231;-58
2022/08/22 06:54:42;;;;;;;1.90;1.17;;;19.60;99.90;;;;;;5014108;28;20169;-57
2022/08/22 06:57:29;;;;;;;1.58;1.45;;;19.70;99.90;;;;;;5013398;28;20173;-57
2022/08/22 06:59:56;;;;;;;2.00;1.45;;;19.70;99.90;;;;;;5014226;28;20192;-57
2022/08/22 07:02:39;;;;;;;2.35;1.50;;;19.80;99.90;;;;;;5012938;28;20211;-57
2022/08/22 07:05:08;;;;;;;1.63;1.25;;;19.90;99.90;;;;;;5013987;28;20255;-57
2022/08/22 07:07:35;;;;;;;2.50;1.23;;;20.00;99.90;;;;;;5013719;28;20277;-57
2022/08/22 07:10:03;;;;;;;2.58;1.45;;;19.90;99.90;;;;;;5013896;28;20184;-57
2022/08/22 07:12:34;;;;;;;1.38;1.25;;;19.90;99.90;;;;;;5013918;28;20259;-57
2022/08/22 07:15:31;;;;;;;1.55;1.45;;;19.90;99.90;;;;;;5013865;28;20668;-58
2022/08/22 07:18:00;;;;;;;2.38;1.30;;;19.90;99.90;;;;;;5013758;28;20185;-58
2022/08/22 07:20:40;;;;;;;1.20;1.08;;;19.90;99.90;;;;;;5013549;28;20180;-57
2022/08/22 07:23:11;;;;;;;2.42;1.15;;;20.00;99.90;;;;;;5013887;28;20176;-57
2022/08/22 07:26:01;;;;;;;1.35;1.17;;;20.00;99.90;;;;;;5013633;28;20242;-58
2022/08/22 07:28:52;;;;;;;2.97;1.55;;;20.10;99.90;;;;;;5013635;28;20192;-57
2022/08/22 07:31:40;;;;;;;1.77;1.17;;;20.00;99.90;;;;;;5013792;28;20248;-57
2022/08/22 07:34:30;;;;;;;1.40;1.30;;;20.00;99.90;;;;;;5013731;28;20179;-56
2022/08/22 07:37:17;;;;;;;1.55;1.40;;;19.90;99.90;;;;;;5013439;28;20185;-57
2022/08/22 07:39:59;;;;;;;1.80;1.38;;;19.80;99.90;;;;;;5013672;28;20183;-57
2022/08/22 07:42:47;;;;;;;1.10;1.00;;;19.80;99.90;;;;;;5013530;28;20367;-57
2022/08/22 07:45:31;;;;;;;0.93;0.93;;;19.80;99.90;;;;;;5013265;28;20667;-58
2022/08/22 07:48:11;;;;;;;2.25;1.40;;;19.90;99.90;;;;;;5013608;28;20181;-57
2022/08/22 07:50:47;;;;;;;1.63;1.40;;;19.90;99.90;;;;;;5013391;28;20173;-57
2022/08/22 07:53:36;;;;;;;1.90;1.45;;;20.00;99.90;;;;;;5013331;28;20168;-57
2022/08/22 07:56:05;;;;;;;1.40;1.17;;;20.00;99.90;;;;;;5013576;28;20172;-57
2022/08/22 07:58:36;;;;;;;1.35;1.13;;;20.00;99.90;;;;;;5013402;28;20183;-57
2022/08/22 08:01:02;;;;;;;1.63;1.02;;;20.10;99.90;;;;;;5012137;28;20515;-57
2022/08/22 08:03:30;;;;;;;2.55;1.17;;;20.20;99.90;;;;;;5013398;28;20176;-57
2022/08/22 08:05:56;;;;;;;1.63;1.17;;;20.40;99.90;;;;;;5011877;28;20204;-57
2022/08/22 08:08:26;;;;;;;2.97;1.25;;;20.50;99.90;;;;;;5016367;28;20177;-57
2022/08/22 08:10:55;;;;;;;1.30;1.17;;;20.60;99.90;;;;;;5017247;28;20211;-57
2022/08/22 08:13:26;;;;;;;2.20;1.50;;;20.70;99.90;;;;;;5017408;28;20172;-57
2022/08/22 08:15:52;;;;;;;1.25;1.15;;;20.70;99.90;;;;;;5015795;28;20219;-57
2022/08/22 08:18:23;;;;;;;1.58;1.10;;;20.70;99.90;;;;;;5016923;28;20574;-57
2022/08/22 08:20:56;;;;;;;2.20;1.38;;;20.70;99.90;;;;;;5016860;28;20172;-58
2022/08/22 08:23:23;;;;;;;1.67;1.10;;;20.70;99.90;;;;;;5017127;28;20180;-57
2022/08/22 08:26:05;;;;;;;2.28;1.13;;;20.90;99.90;;;;;;5016804;28;20661;-57
2022/08/22 08:28:37;;;;;;;1.70;1.10;;;21.00;99.90;;;;;;5016959;28;20246;-57
2022/08/22 08:31:34;;;;;;;1.95;1.00;;;21.10;99.90;;;;;;5016649;28;20246;-57
2022/08/22 08:34:22;;;;;;;1.42;1.05;;;21.10;99.90;;;;;;5016293;28;20189;-57
2022/08/22 08:36:56;;;;;;;1.85;1.25;;;21.20;99.90;;;;;;5016593;28;20191;-57
2022/08/22 08:39:27;;;;;;;1.70;1.20;;;21.20;99.90;;;;;;5016527;28;20597;-57
2022/08/22 08:42:31;;;;;;;1.88;1.38;;;21.10;99.90;;;;;;5016785;28;20175;-57
2022/08/22 08:45:05;;;;;;;1.45;1.30;;;21.20;99.90;;;;;;5016286;28;20234;-57
2022/08/22 08:48:03;;;;;;;2.08;1.15;;;21.40;99.90;;;;;;5015145;28;20216;-57
2022/08/22 08:50:48;;;;;;;1.73;1.33;;;21.60;99.90;;;;;;5016567;28;20219;-57
2022/08/22 08:53:57;;;;;;;1.15;1.05;;;21.90;99.90;;;;;;5016377;28;20169;-57
2022/08/22 08:56:22;;;;;;;1.27;1.17;;;22.30;99.90;;;;;;5016507;28;20200;-57
2022/08/22 08:59:30;;;;;;;1.40;1.27;;;22.70;99.90;;;;;;5016320;28;20274;-57
2022/08/22 09:02:19;;;;;;;2.95;2.25;;;22.80;99.90;;;;;;5016478;28;20168;-57
2022/08/22 09:05:03;;;;;;;2.33;1.42;;;22.70;99.90;;;;;;5016240;28;20180;-58
2022/08/22 09:07:35;;;;;;;3.17;1.20;;;22.80;99.90;;;;;;5016158;28;20210;-56
2022/08/22 09:10:09;;;;;;;1.50;1.27;;;22.90;99.90;;;;;;5016093;28;20176;-58
2022/08/22 09:12:49;;;;;;;1.92;1.33;;;22.90;99.90;;;;;;5015953;28;20180;-58
2022/08/22 09:15:48;;;;;;;1.50;1.15;;;22.90;99.90;;;;;;5016115;28;20518;-58
2022/08/22 09:18:25;;;;;;;1.92;1.50;;;22.90;99.90;;;;;;5015220;28;20179;-58
2022/08/22 09:21:16;;;;;;;1.38;1.00;;;22.90;99.90;;;;;;5016393;28;20252;-57
2022/08/22 09:24:27;;;;;;;2.72;1.20;;;23.00;99.90;;;;;;5015984;28;20180;-58
2022/08/22 09:26:59;;;;;;;1.92;1.20;;;23.40;99.90;;;;;;5015705;28;20309;-57
2022/08/22 09:29:47;;;;;;;1.42;1.33;;;23.40;99.90;;;;;;5015420;28;20204;-58
2022/08/22 09:32:33;;;;;;;2.28;1.13;;;23.50;99.90;;;;;;5015747;28;20175;-57
2022/08/22 09:35:06;;;;;;;2.70;1.30;;;24.00;99.90;;;;;;5015656;28;20200;-56
2022/08/22 09:37:43;;;;;;;0.80;0.80;;;24.00;99.90;;;;;;5015496;28;20188;-57
2022/08/22 09:40:25;;;;;;;2.63;1.10;;;24.00;99.90;;;;;;5014130;28;20649;-57
2022/08/22 09:43:00;;;;;;;1.10;1.10;;;24.20;99.90;;;;;;5015533;28;20554;-57
2022/08/22 09:45:37;;;;;;;0.93;0.80;;;24.10;99.90;;;;;;5015358;28;20378;-57
2022/08/22 09:48:09;;;;;;;1.30;0.88;;;24.00;98.70;;;;;;5015345;28;20553;-57
2022/08/22 09:50:52;;;;;;;1.50;1.00;;;24.00;99.00;;;;;;5015374;28;20176;-57
2022/08/22 09:53:43;;;;;;;1.17;0.93;;;23.90;99.10;;;;;;5014178;28;20172;-57
2022/08/22 09:56:36;;;;;;;1.00;0.90;;;24.10;99.90;;;;;;5009406;28;20199;-57
2022/08/22 09:59:35;;;;;;;1.95;0.95;;;24.20;99.20;;;;;;5014041;28;20287;-57
2022/08/22 10:02:12;;;;;;;1.42;1.00;;;24.30;98.50;;;;;;4978822;28;20193;-57
2022/08/22 10:04:53;;;;;;;1.67;0.90;;;24.40;98.30;;;;;;5014952;28;20251;-57
2022/08/22 10:07:34;;;;;;;3.95;1.20;;;24.50;98.70;;;;;;5014823;28;20204;-57
2022/08/22 10:10:19;;;;;;;0.88;0.88;;;24.50;98.10;;;;;;5014887;28;20671;-57
2022/08/22 10:12:58;;;;;;;2.75;1.10;;;24.50;97.30;;;;;;5013741;28;20177;-57
2022/08/22 10:15:48;;;;;;;1.48;0.90;;;24.60;97.70;;;;;;5014737;28;20169;-57
2022/08/22 10:18:29;;;;;;;1.42;0.95;;;24.80;97.80;;;;;;5014958;28;20165;-57
2022/08/22 10:21:12;;;;;;;0.70;0.70;;;24.90;97.00;;;;;;5014714;28;20169;-57
2022/08/22 10:24:09;;;;;;;1.52;0.95;;;25.10;97.70;;;;;;5014874;28;20649;-58
2022/08/22 10:26:56;;;;;;;0.77;0.77;;;25.10;97.20;;;;;;4990658;28;20220;-57
2022/08/22 10:29:36;;;;;;;1.88;0.80;;;25.50;97.10;;;;;;5014317;28;20279;-57
2022/08/22 10:32:14;;;;;;;0.70;0.70;;;25.70;96.70;;;;;;5014474;28;20199;-57
2022/08/22 10:34:46;;;;;;;1.55;0.90;;;25.80;95.80;;;;;;5014700;28;20197;-57
2022/08/22 10:37:32;;;;;;;1.95;1.13;;;25.70;94.30;;;;;;5014747;28;20260;-57
2022/08/22 10:40:25;;;;;;;2.28;0.80;;;25.80;94.00;;;;;;5014416;28;20173;-57
2022/08/22 10:42:52;;;;;;;1.50;0.68;;;25.70;94.50;;;;;;5014590;28;20199;-58
2022/08/22 10:45:27;;;;;;;1.63;0.90;;;25.80;94.90;;;;;;5014503;28;20176;-57
2022/08/22 10:47:52;;;;;;;0.73;0.63;;;25.80;93.50;;;;;;5014234;28;20692;-57
2022/08/22 10:50:25;;;;;;;1.75;0.70;;;25.90;94.10;;;;;;5014185;28;20169;-57
2022/08/22 10:53:28;;;;;;;3.30;0.80;;;26.00;93.90;;;;;;5014039;28;20171;-58
2022/08/22 10:55:46;;;;;;;0.70;0.70;;;26.00;94.20;;;;;;5013952;28;20184;-57
2022/08/22 10:58:25;;;;;;;2.20;0.80;;;26.10;93.90;;;;;;5014229;28;20176;-58
2022/08/22 11:00:58;;;;;;;0.63;0.50;;;26.00;92.90;;;;;;5014182;28;20177;-59
2022/08/22 11:03:47;;;;;;;0.73;0.70;;;25.90;92.60;;;;;;5013895;28;20173;-59
2022/08/22 11:06:16;;;;;;;0.70;0.70;;;25.60;92.20;;;;;;4993018;28;20216;-58
2022/08/22 11:09:06;;;;;;;0.60;0.60;;;25.80;92.60;;;;;;5013807;28;20626;-57
2022/08/22 11:11:37;;;;;;;1.40;0.77;;;26.00;93.50;;;;;;5013882;28;20186;-57
2022/08/22 11:14:23;;;;;;;0.70;0.70;;;26.20;93.10;;;;;;5013985;28;20215;-58
2022/08/22 11:17:16;;;;;;;0.77;0.70;;;26.40;92.90;;;;;;5014237;28;20664;-57
2022/08/22 11:20:09;;;;;;;1.85;0.80;;;26.60;93.20;;;;;;5012513;28;20250;-56
2022/08/22 11:22:47;;;;;;;1.83;0.57;;;26.50;91.70;;;;;;5014063;28;20247;-57
2022/08/22 11:25:13;;;;;;;0.90;0.68;;;26.40;92.10;;;;;;5013739;28;20175;-57
2022/08/22 11:27:51;;;;;;;2.47;0.80;;;25.90;92.10;;;;;;5013343;28;20614;-57
2022/08/22 11:30:31;;;;;;;0.85;0.73;;;26.10;92.40;;;;;;5013590;28;20208;-56
2022/08/22 11:32:57;;;;;;;1.52;0.77;;;25.90;91.70;;;;;;5013877;28;20222;-57
2022/08/22 11:35:35;;;;;;;0.88;0.85;;;25.90;92.60;;;;;;5013957;28;20168;-57
2022/08/22 11:38:32;;;;;;;1.30;0.77;;;25.90;91.40;;;;;;5013655;28;20187;-57
2022/08/22 11:41:21;;;;;;;1.48;0.80;;;25.80;91.80;;;;;;5013338;28;20176;-58
2022/08/22 11:44:01;;;;;;;0.98;0.70;;;25.90;93.00;;;;;;5013662;28;20630;-58
2022/08/22 11:46:51;;;;;;;0.88;0.80;;;26.20;93.70;;;;;;5013581;28;20207;-58
2022/08/22 11:49:26;;;;;;;1.42;0.80;;;26.30;92.40;;;;;;5013643;28;20169;-56
2022/08/22 11:52:00;;;;;;;1.10;1.00;;;26.20;92.70;;;;;;5013491;28;20222;-58
2022/08/22 11:54:41;;;;;;;1.42;0.70;;;26.10;91.80;;;;;;5012055;28;20503;-57
2022/08/22 11:57:25;;;;;;;1.05;0.77;;;26.20;92.10;;;;;;5013466;28;20172;-57
2022/08/22 11:59:57;;;;;;;0.70;0.63;;;26.30;92.70;;;;;;5013344;28;20267;-57
2022/08/22 12:02:51;;;;;;;0.90;0.90;;;26.30;91.40;;;;;;5013691;28;20503;-57
2022/08/22 12:05:21;;;;;;;0.85;0.73;;;26.10;91.60;;;;;;4998365;28;20189;-56
2022/08/22 12:07:59;;;;;;;1.98;0.88;;;26.20;92.00;;;;;;5013173;28;20573;-57
2022/08/22 12:10:32;;;;;;;0.98;0.68;;;26.40;90.70;;;;;;5013458;28;20219;-58
2022/08/22 12:13:02;;;;;;;0.68;0.68;;;26.30;90.60;;;;;;5013156;28;20223;-57
2022/08/22 12:15:33;;;;;;;1.45;0.73;;;26.40;91.90;;;;;;5013396;28;20169;-57
2022/08/22 12:18:20;;;;;;;0.70;0.70;;;26.60;90.60;;;;;;5013238;28;20576;-57
2022/08/22 12:21:15;;;;;;;0.85;0.68;;;26.50;90.00;;;;;;5013312;28;20184;-57
2022/08/22 12:23:55;;;;;;;1.02;0.82;;;26.60;90.20;;;;;;5013137;28;20161;-57
2022/08/22 12:26:27;;;;;;;1.35;0.77;;;26.60;91.10;;;;;;5012948;28;20646;-58
2022/08/22 12:29:02;;;;;;;1.25;0.65;;;26.60;88.70;;;;;;5012939;28;20284;-57
2022/08/22 12:31:28;;;;;;;0.60;0.50;;;26.80;90.40;;;;;;5012888;28;20556;-58
2022/08/22 12:34:17;;;;;;;1.20;0.90;;;27.00;89.30;;;;;;5013008;28;20187;-57
2022/08/22 12:36:58;;;;;;;1.75;0.70;;;27.10;88.70;;;;;;5013090;28;20169;-58
2022/08/22 12:39:50;;;;;;;0.80;0.63;;;27.10;88.00;;;;;;5013199;28;20175;-57
2022/08/22 12:42:23;;;;;;;0.63;0.63;;;27.20;88.90;;;;;;5013039;28;20212;-57
2022/08/22 12:45:16;;;;;;;0.60;0.60;;;27.10;85.90;;;;;;5012932;28;20176;-58
2022/08/22 12:47:42;;;;;;;3.38;0.75;;;27.20;89.60;;;;;;5013019;28;20204;-57
2022/08/22 12:50:34;;;;;;;1.08;0.75;;;27.20;87.50;;;;;;5012831;28;20684;-57
2022/08/22 12:53:38;;;;;;;2.15;0.90;;;27.20;88.40;;;;;;5008642;28;20212;-57
2022/08/22 12:56:45;;;;;;;2.10;1.17;;;27.20;88.40;;;;;;5016509;28;20173;-58
2022/08/22 12:59:13;;;;;;;0.95;0.88;;;27.20;88.50;;;;;;5014865;28;20267;-57
2022/08/22 13:01:43;;;;;;;1.33;0.80;;;27.20;86.80;;;;;;5016146;28;20543;-57
2022/08/22 13:04:15;;;;;;;1.55;0.70;;;27.30;88.20;;;;;;5015968;28;20337;-57
2022/08/22 13:06:41;;;;;;;2.55;0.80;;;27.40;87.80;;;;;;5016415;28;20211;-57
2022/08/22 13:09:25;;;;;;;1.95;0.93;;;27.40;87.20;;;;;;5014883;28;20218;-57
2022/08/22 13:11:55;;;;;;;2.08;1.00;;;27.30;87.80;;;;;;5016318;28;20384;-57
2022/08/22 13:14:24;;;;;;;1.55;0.80;;;27.20;87.90;;;;;;5016002;28;20214;-57
2022/08/22 13:16:54;;;;;;;1.23;1.02;;;27.30;89.60;;;;;;5016057;28;20181;-57
2022/08/22 13:19:31;;;;;;;1.67;1.10;;;27.20;86.70;;;;;;5015974;28;20172;-57
2022/08/22 13:22:06;;;;;;;0.80;0.80;;;27.20;87.10;;;;;;5015779;28;20537;-57
2022/08/22 13:24:45;;;;;;;1.00;0.70;;;27.10;86.70;;;;;;5015794;28;20180;-57
2022/08/22 13:27:33;;;;;;;1.35;0.85;;;26.90;86.50;;;;;;5015852;28;20215;-57
2022/08/22 13:30:04;;;;;;;1.15;0.98;;;26.90;87.70;;;;;;5014589;28;20189;-58
2022/08/22 13:32:45;;;;;;;1.73;0.90;;;27.10;88.40;;;;;;5015735;28;20175;-57
2022/08/22 13:35:23;;;;;;;1.20;0.93;;;27.10;87.20;;;;;;5014353;28;20181;-57
2022/08/22 13:37:54;;;;;;;1.08;0.95;;;27.30;87.70;;;;;;5015709;28;20172;-57
2022/08/22 13:40:30;;;;;;;1.15;0.85;;;27.30;88.60;;;;;;5015443;28;20177;-58
2022/08/22 13:43:09;;;;;;;1.83;1.10;;;27.30;88.00;;;;;;5015436;28;20184;-57
2022/08/22 13:45:39;;;;;;;1.13;1.00;;;27.20;88.20;;;;;;5015235;28;20173;-58
2022/08/22 13:48:14;;;;;;;1.05;0.80;;;27.50;89.50;;;;;;5014188;28;20653;-57
2022/08/22 13:51:05;;;;;;;1.52;0.73;;;27.30;87.10;;;;;;5015386;28;20267;-58
2022/08/22 13:53:43;;;;;;;1.02;0.70;;;27.20;87.70;;;;;;5015340;28;20278;-57
2022/08/22 13:56:19;;;;;;;0.70;0.60;;;27.30;86.40;;;;;;5015424;28;20664;-57
2022/08/22 13:58:49;;;;;;;2.90;0.82;;;27.50;85.70;;;;;;5014021;28;20526;-57